»·PEaware :: N5002T KSBD-KEMT

N5002T :: KSBD-KEMT

FLIGHT INFORMATION

Flight Status: Arrived
Operator: Privately registered:
United States
More flights under this callsign
Pilot: Hunter M. (19355)
Aircraft: CESSNA 172 SKYHAWK
(C172)
More flights by this aircraft type
Origin: KSBD San Bernardino Intl
United States
Destination: KEMT El Monte
United States
More flights between these airports :: More routes between these airports
Route: DIRECT
File this flight plan on PilotEdge
Remarks:
Altitude:
(Current/Filed)
5,000ft
Speed:
(Current/Filed)
118kts
Departed: 22-Dec-18 08:39 PM
Arrived: 22-Dec-18 09:14 PM
Distance/Time
Traveled:
40nm/0:35
Distance/Time
To Go:
Arrived

Flight Plot

Page will automatically refresh every two minutes.


Map Options




Map Legend


Flown Route
Filed Route
Departure Airport
Arrival Airport
Navaid (VOR, NDB)
Fix

Horizontal Profiles

Position Reports

Time Latitude Longitude Heading Altitude Ground
Speed
22-Dec-18 20:05 34.102116 -117.225569 268 1160ft 0kts
22-Dec-18 20:06 34.102116 -117.225572 268 1160ft 0kts
22-Dec-18 20:07 34.102116 -117.225575 268 1160ft 0kts
22-Dec-18 20:08 34.102116 -117.225576 268 1160ft 0kts
22-Dec-18 20:09 34.102116 -117.225577 268 1160ft 0kts
22-Dec-18 20:10 34.102116 -117.225578 268 1160ft 0kts
22-Dec-18 20:11 34.102116 -117.225578 268 1160ft 0kts
22-Dec-18 20:12 34.102116 -117.225579 268 1160ft 0kts
22-Dec-18 20:13 34.102116 -117.225579 268 1160ft 0kts
22-Dec-18 20:14 34.102116 -117.225580 268 1160ft 0kts
22-Dec-18 20:15 34.102116 -117.225581 268 1160ft 0kts
22-Dec-18 20:16 34.102116 -117.225581 268 1160ft 0kts
22-Dec-18 20:17 34.102116 -117.225582 268 1160ft 0kts
22-Dec-18 20:18 34.102116 -117.225582 268 1160ft 0kts
22-Dec-18 20:19 34.102116 -117.225583 268 1160ft 0kts
22-Dec-18 20:20 34.102116 -117.225584 268 1160ft 0kts
22-Dec-18 20:21 34.102116 -117.225584 268 1160ft 0kts
22-Dec-18 20:22 34.102116 -117.225585 268 1160ft 0kts
22-Dec-18 20:23 34.102089 -117.225644 216 1160ft 1kts
22-Dec-18 20:24 34.100174 -117.226026 248 1160ft 6kts
22-Dec-18 20:25 34.099110 -117.227481 247 1160ft 2kts
22-Dec-18 20:26 34.097942 -117.231423 249 1160ft 10kts
22-Dec-18 20:27 34.096715 -117.235537 249 1160ft 19kts
22-Dec-18 20:28 34.095213 -117.240769 251 1160ft 15kts
22-Dec-18 20:29 34.093599 -117.246247 248 1160ft 18kts
22-Dec-18 20:30 34.092424 -117.250236 249 1160ft 0kts
22-Dec-18 20:31 34.092424 -117.250237 249 1160ft 0kts
22-Dec-18 20:32 34.092424 -117.250237 249 1160ft 0kts
22-Dec-18 20:33 34.092423 -117.250238 249 1160ft 0kts
22-Dec-18 20:34 34.092400 -117.250307 244 1160ft 2kts
22-Dec-18 20:35 34.091872 -117.250458 166 1160ft 0kts
22-Dec-18 20:36 34.091872 -117.250457 166 1160ft 0kts
22-Dec-18 20:37 34.091006 -117.249931 112 1160ft 9kts
22-Dec-18 20:38 34.097286 -117.228829 70 1396ft 93kts
22-Dec-18 20:39 34.103857 -117.200743 129 2223ft 82kts
22-Dec-18 20:40 34.081998 -117.190074 160 2968ft 91kts
22-Dec-18 20:41 34.058547 -117.179097 200 3676ft 87kts
22-Dec-18 20:42 34.055721 -117.204447 278 4396ft 81kts
22-Dec-18 20:43 34.057945 -117.231705 277 5005ft 85kts
22-Dec-18 20:44 34.060208 -117.261594 277 4992ft 88kts
22-Dec-18 20:45 34.062256 -117.290271 277 4997ft 84kts
22-Dec-18 20:46 34.064165 -117.318441 277 4998ft 84kts
22-Dec-18 20:47 34.072606 -117.343972 301 4999ft 83kts
22-Dec-18 20:48 34.080730 -117.370212 291 4998ft 83kts
22-Dec-18 20:49 34.088279 -117.396893 290 4998ft 83kts
22-Dec-18 20:50 34.095531 -117.423727 289 5000ft 84kts
22-Dec-18 20:51 34.097682 -117.451962 272 5011ft 85kts
22-Dec-18 20:52 34.097243 -117.480577 271 5012ft 85kts
22-Dec-18 20:53 34.096731 -117.509217 271 5013ft 85kts
22-Dec-18 20:54 34.096207 -117.537950 271 5014ft 86kts
22-Dec-18 20:55 34.095672 -117.566850 271 5013ft 86kts
22-Dec-18 20:56 34.095133 -117.595735 271 5012ft 86kts
22-Dec-18 20:57 34.094589 -117.624587 271 5013ft 86kts
22-Dec-18 20:58 34.094039 -117.653404 271 5013ft 86kts
22-Dec-18 20:59 34.093480 -117.682283 271 5022ft 86kts
22-Dec-18 21:00 34.092909 -117.711355 271 4992ft 89kts
22-Dec-18 21:01 34.092123 -117.745027 270 4557ft 113kts
22-Dec-18 21:02 34.091285 -117.782112 271 4010ft 97kts
22-Dec-18 21:03 34.090921 -117.811091 271 4018ft 81kts
22-Dec-18 21:04 34.090314 -117.839648 270 3755ft 93kts
22-Dec-18 21:05 34.089578 -117.871480 270 3265ft 95kts
22-Dec-18 21:06 34.088887 -117.903908 266 2765ft 98kts
22-Dec-18 21:07 34.088184 -117.936570 266 2498ft 92kts
22-Dec-18 21:08 34.087457 -117.968907 267 2185ft 102kts
22-Dec-18 21:09 34.086655 -118.004158 271 1690ft 108kts
22-Dec-18 21:10 34.110174 -118.005438 21 1391ft 97kts
22-Dec-18 21:11 34.121557 -118.015169 201 1410ft 89kts
22-Dec-18 21:13 34.102392 -118.025553 205 866ft 65kts
22-Dec-18 21:14 34.087672 -118.033903 205 299ft 33kts
22-Dec-18 21:15 34.081055 -118.037473 151 299ft 15kts
22-Dec-18 21:16 34.081889 -118.036103 20 299ft 0kts

Navigation Log

Ident Type
Flight plan parsing failed, navigation log unavailable